Portada
METAR-TAF:

METAR-TAF

Aeroports :

Pyongyang, Corea del Nord

latitud: 39-02N, longitud: 125-47E, altitud: 36 m

METAR: manca

Hora: 23:56 (15:26 UTC)

Pronòstic

L'informe es va fer fa 3 hores i 56 minuts, a les 11:30 UTC
Pronòstic vàlid del 23 a les 12 UTC al 24 a les 12 UTC
Vent 6 kt amb direcció variable
Visibilitat: 6000 m
Temporalment
l' 23 a les 18 UTC al 24 a les 01 UTC
Visibilitat: 1000 m
boirina

TAF: ZKPY 231130Z 2312/2412 VRB03MPS 6000 NSC TX12/2406Z TNM04/2322Z TEMPO 2318/2401 1000 BR

Observacions i pronòstics meteorològics de més de 4000 aeroports (METAR i TAF).

Les estacions disponibles són els punts grocs i vermells al mapa.

Posi el ratolí al punt desitjat per veure el nom de l'estació.

Feu clic per veure les observacions i els pronòstics meteorològics.

Per canviar el mapa: feu clic els botons verds amb una creu de color negre per apropar; al botó verd amb un guió per allunyar la imatge; o en les fletxes verdes per a mapes adjacents.


METAR-TAF: